Elwood, New Jersey
Current Conditions -  °F | °C
As of 7:54 PM on Thursday 27 Nov 2014 (Local Time) from KACY Reporting Station
Clear Clear  
Wind Chill: 27°   Ceiling: Unl
Heat Index: 33°   Visibility: 10mi
Dew Point: 28°   Wind: 7mph
Humidity: 82%   Direction: 280°W
Pressure: 30.09"   Gusts: NA
Location:  39.58°N, 74.72°W
Report Text: KACY 280054Z 28006KT 10SM CLR 01/M02 A3009 RMK AO2 SLP188 T00061022
Loading
Personal Weather Stations






























Interactive Weather Map New forecast layout! Learn more

10-Day Weather Forecast

Advertisements
Track Severe Weather on mobile